sensor_id;sensor_type;location;lat;lon;timestamp;P1;durP1;ratioP1;P2;durP2;ratioP2
83963;SDS011;73994;50.868;5.420;2024-01-30T00:02:06;9.30;;;6.60;;
83963;SDS011;73994;50.868;5.420;2024-01-30T00:04:32;11.60;;;6.72;;
83963;SDS011;73994;50.868;5.420;2024-01-30T00:06:58;7.75;;;5.20;;
83963;SDS011;73994;50.868;5.420;2024-01-30T00:09:23;8.52;;;6.40;;
83963;SDS011;73994;50.868;5.420;2024-01-30T00:11:49;8.95;;;5.90;;
83963;SDS011;73994;50.868;5.420;2024-01-30T00:14:16;11.80;;;7.50;;
83963;SDS011;73994;50.868;5.420;2024-01-30T00:16:41;10.85;;;6.35;;
83963;SDS011;73994;50.868;5.420;2024-01-30T00:19:07;9.55;;;6.50;;
83963;SDS011;73994;50.868;5.420;2024-01-30T00:21:33;11.82;;;7.00;;
83963;SDS011;73994;50.868;5.420;2024-01-30T00:23:59;9.60;;;6.68;;
83963;SDS011;73994;50.868;5.420;2024-01-30T00:26:25;11.00;;;6.70;;
83963;SDS011;73994;50.868;5.420;2024-01-30T00:28:50;11.43;;;6.85;;
83963;SDS011;73994;50.868;5.420;2024-01-30T00:31:16;8.02;;;5.88;;
83963;SDS011;73994;50.868;5.420;2024-01-30T00:33:42;10.55;;;6.68;;
83963;SDS011;73994;50.868;5.420;2024-01-30T00:36:08;9.68;;;6.45;;
83963;SDS011;73994;50.868;5.420;2024-01-30T00:38:35;12.07;;;6.47;;
83963;SDS011;73994;50.868;5.420;2024-01-30T00:41:01;8.88;;;6.88;;
83963;SDS011;73994;50.868;5.420;2024-01-30T00:43:27;8.35;;;5.03;;
83963;SDS011;73994;50.868;5.420;2024-01-30T00:45:53;5.78;;;4.47;;
83963;SDS011;73994;50.868;5.420;2024-01-30T00:48:19;9.40;;;6.07;;
83963;SDS011;73994;50.868;5.420;2024-01-30T00:50:47;9.30;;;6.47;;
83963;SDS011;73994;50.868;5.420;2024-01-30T00:53:12;8.65;;;5.95;;
83963;SDS011;73994;50.868;5.420;2024-01-30T00:55:38;11.90;;;6.38;;
83963;SDS011;73994;50.868;5.420;2024-01-30T00:58:04;11.35;;;6.35;;
83963;SDS011;73994;50.868;5.420;2024-01-30T01:00:30;9.50;;;6.35;;
83963;SDS011;73994;50.868;5.420;2024-01-30T01:02:57;9.50;;;6.75;;
83963;SDS011;73994;50.868;5.420;2024-01-30T01:05:26;7.18;;;4.90;;
83963;SDS011;73994;50.868;5.420;2024-01-30T01:07:52;10.80;;;6.97;;
83963;SDS011;73994;50.868;5.420;2024-01-30T01:10:18;10.10;;;7.35;;
83963;SDS011;73994;50.868;5.420;2024-01-30T01:12:44;9.27;;;7.13;;
83963;SDS011;73994;50.868;5.420;2024-01-30T01:15:10;8.65;;;6.45;;
83963;SDS011;73994;50.868;5.420;2024-01-30T01:17:37;9.93;;;6.75;;
83963;SDS011;73994;50.868;5.420;2024-01-30T01:20:03;12.48;;;7.55;;
83963;SDS011;73994;50.868;5.420;2024-01-30T01:22:33;8.70;;;6.45;;
83963;SDS011;73994;50.868;5.420;2024-01-30T01:24:59;10.27;;;7.10;;
83963;SDS011;73994;50.868;5.420;2024-01-30T01:27:25;8.88;;;6.53;;
83963;SDS011;73994;50.868;5.420;2024-01-30T01:29:52;9.73;;;5.28;;
83963;SDS011;73994;50.868;5.420;2024-01-30T01:32:18;7.40;;;5.93;;
83963;SDS011;73994;50.868;5.420;2024-01-30T01:34:44;8.38;;;5.93;;
83963;SDS011;73994;50.868;5.420;2024-01-30T01:37:10;9.48;;;5.40;;
83963;SDS011;73994;50.868;5.420;2024-01-30T01:39:36;9.02;;;6.00;;
83963;SDS011;73994;50.868;5.420;2024-01-30T01:42:01;6.50;;;5.18;;
83963;SDS011;73994;50.868;5.420;2024-01-30T01:44:27;6.03;;;4.20;;
83963;SDS011;73994;50.868;5.420;2024-01-30T01:46:53;8.60;;;5.55;;
83963;SDS011;73994;50.868;5.420;2024-01-30T01:49:21;9.25;;;5.35;;
83963;SDS011;73994;50.868;5.420;2024-01-30T01:51:48;7.50;;;5.40;;
83963;SDS011;73994;50.868;5.420;2024-01-30T01:54:14;6.85;;;5.53;;
83963;SDS011;73994;50.868;5.420;2024-01-30T01:56:41;7.35;;;5.28;;
83963;SDS011;73994;50.868;5.420;2024-01-30T01:59:08;7.28;;;5.40;;
83963;SDS011;73994;50.868;5.420;2024-01-30T02:01:37;7.40;;;5.43;;
83963;SDS011;73994;50.868;5.420;2024-01-30T02:04:04;6.90;;;5.25;;
83963;SDS011;73994;50.868;5.420;2024-01-30T02:06:30;9.07;;;5.35;;
83963;SDS011;73994;50.868;5.420;2024-01-30T02:08:57;7.03;;;5.57;;
83963;SDS011;73994;50.868;5.420;2024-01-30T02:11:23;8.05;;;4.95;;
83963;SDS011;73994;50.868;5.420;2024-01-30T02:13:49;8.13;;;5.47;;
83963;SDS011;73994;50.868;5.420;2024-01-30T02:16:15;8.50;;;5.15;;
83963;SDS011;73994;50.868;5.420;2024-01-30T02:18:42;6.22;;;4.55;;
83963;SDS011;73994;50.868;5.420;2024-01-30T02:21:10;9.85;;;5.25;;
83963;SDS011;73994;50.868;5.420;2024-01-30T02:23:36;8.60;;;4.60;;
83963;SDS011;73994;50.868;5.420;2024-01-30T02:26:02;6.88;;;3.70;;
83963;SDS011;73994;50.868;5.420;2024-01-30T02:28:28;6.95;;;4.15;;
83963;SDS011;73994;50.868;5.420;2024-01-30T02:30:54;6.72;;;4.65;;
83963;SDS011;73994;50.868;5.420;2024-01-30T02:33:20;8.38;;;4.78;;
83963;SDS011;73994;50.868;5.420;2024-01-30T02:35:47;5.10;;;4.00;;
83963;SDS011;73994;50.868;5.420;2024-01-30T02:38:13;5.72;;;4.65;;
83963;SDS011;73994;50.868;5.420;2024-01-30T02:40:40;7.82;;;4.60;;
83963;SDS011;73994;50.868;5.420;2024-01-30T02:43:06;8.68;;;4.72;;
83963;SDS011;73994;50.868;5.420;2024-01-30T02:45:31;5.68;;;4.50;;
83963;SDS011;73994;50.868;5.420;2024-01-30T02:47:57;6.88;;;4.72;;
83963;SDS011;73994;50.868;5.420;2024-01-30T02:50:23;6.65;;;4.40;;
83963;SDS011;73994;50.868;5.420;2024-01-30T02:52:48;6.05;;;4.72;;
83963;SDS011;73994;50.868;5.420;2024-01-30T02:55:14;7.05;;;4.43;;
83963;SDS011;73994;50.868;5.420;2024-01-30T03:00:08;6.05;;;4.70;;
83963;SDS011;73994;50.868;5.420;2024-01-30T03:02:35;8.10;;;5.25;;
83963;SDS011;73994;50.868;5.420;2024-01-30T03:05:01;6.72;;;4.03;;
83963;SDS011;73994;50.868;5.420;2024-01-30T03:07:28;5.93;;;4.55;;
83963;SDS011;73994;50.868;5.420;2024-01-30T03:09:54;6.43;;;5.35;;
83963;SDS011;73994;50.868;5.420;2024-01-30T03:12:20;5.85;;;4.10;;
83963;SDS011;73994;50.868;5.420;2024-01-30T03:14:47;5.28;;;3.40;;
83963;SDS011;73994;50.868;5.420;2024-01-30T03:17:13;8.82;;;4.32;;
83963;SDS011;73994;50.868;5.420;2024-01-30T03:19:38;5.65;;;4.18;;
83963;SDS011;73994;50.868;5.420;2024-01-30T03:22:04;7.30;;;4.00;;
83963;SDS011;73994;50.868;5.420;2024-01-30T03:24:30;7.15;;;4.57;;
83963;SDS011;73994;50.868;5.420;2024-01-30T03:26:55;6.13;;;3.85;;
83963;SDS011;73994;50.868;5.420;2024-01-30T03:29:21;6.88;;;4.10;;
83963;SDS011;73994;50.868;5.420;2024-01-30T03:31:47;4.15;;;3.65;;
83963;SDS011;73994;50.868;5.420;2024-01-30T03:34:13;6.40;;;4.03;;
83963;SDS011;73994;50.868;5.420;2024-01-30T03:36:38;5.80;;;4.00;;
83963;SDS011;73994;50.868;5.420;2024-01-30T03:39:04;6.57;;;4.20;;
83963;SDS011;73994;50.868;5.420;2024-01-30T03:41:31;6.40;;;3.45;;
83963;SDS011;73994;50.868;5.420;2024-01-30T03:43:57;5.68;;;3.80;;
83963;SDS011;73994;50.868;5.420;2024-01-30T03:46:23;7.10;;;3.95;;
83963;SDS011;73994;50.868;5.420;2024-01-30T03:48:49;6.13;;;3.80;;
83963;SDS011;73994;50.868;5.420;2024-01-30T03:51:15;4.97;;;3.90;;
83963;SDS011;73994;50.868;5.420;2024-01-30T03:53:43;5.03;;;3.67;;
83963;SDS011;73994;50.868;5.420;2024-01-30T03:56:11;5.70;;;3.45;;
83963;SDS011;73994;50.868;5.420;2024-01-30T03:58:38;6.68;;;4.20;;
83963;SDS011;73994;50.868;5.420;2024-01-30T04:01:04;5.25;;;4.32;;
83963;SDS011;73994;50.868;5.420;2024-01-30T04:03:30;4.93;;;4.00;;
83963;SDS011;73994;50.868;5.420;2024-01-30T04:05:56;6.88;;;4.00;;
83963;SDS011;73994;50.868;5.420;2024-01-30T04:08:21;5.72;;;4.00;;
83963;SDS011;73994;50.868;5.420;2024-01-30T04:10:47;4.70;;;3.20;;
83963;SDS011;73994;50.868;5.420;2024-01-30T04:13:14;5.68;;;3.90;;
83963;SDS011;73994;50.868;5.420;2024-01-30T04:15:39;6.68;;;4.38;;
83963;SDS011;73994;50.868;5.420;2024-01-30T04:18:05;6.75;;;4.25;;
83963;SDS011;73994;50.868;5.420;2024-01-30T04:20:31;6.22;;;3.40;;
83963;SDS011;73994;50.868;5.420;2024-01-30T04:22:56;6.65;;;3.88;;
83963;SDS011;73994;50.868;5.420;2024-01-30T04:25:22;6.47;;;4.15;;
83963;SDS011;73994;50.868;5.420;2024-01-30T04:27:48;6.70;;;4.35;;
83963;SDS011;73994;50.868;5.420;2024-01-30T04:30:14;5.75;;;3.50;;
83963;SDS011;73994;50.868;5.420;2024-01-30T04:32:39;7.10;;;4.95;;
83963;SDS011;73994;50.868;5.420;2024-01-30T04:35:05;6.95;;;4.13;;
83963;SDS011;73994;50.868;5.420;2024-01-30T04:37:31;4.82;;;3.35;;
83963;SDS011;73994;50.868;5.420;2024-01-30T04:39:57;9.75;;;4.30;;
83963;SDS011;73994;50.868;5.420;2024-01-30T04:42:23;6.88;;;4.90;;
83963;SDS011;73994;50.868;5.420;2024-01-30T04:44:49;6.45;;;4.85;;
83963;SDS011;73994;50.868;5.420;2024-01-30T04:47:15;6.63;;;5.15;;
83963;SDS011;73994;50.868;5.420;2024-01-30T04:49:41;6.18;;;4.53;;
83963;SDS011;73994;50.868;5.420;2024-01-30T04:52:07;5.82;;;4.60;;
83963;SDS011;73994;50.868;5.420;2024-01-30T04:54:34;7.55;;;5.18;;
83963;SDS011;73994;50.868;5.420;2024-01-30T04:57:00;6.78;;;4.57;;
83963;SDS011;73994;50.868;5.420;2024-01-30T04:59:26;6.72;;;5.00;;
83963;SDS011;73994;50.868;5.420;2024-01-30T05:01:52;6.63;;;4.93;;
83963;SDS011;73994;50.868;5.420;2024-01-30T05:04:18;6.85;;;4.45;;
83963;SDS011;73994;50.868;5.420;2024-01-30T05:06:44;8.43;;;4.40;;
83963;SDS011;73994;50.868;5.420;2024-01-30T05:09:11;4.80;;;4.13;;
83963;SDS011;73994;50.868;5.420;2024-01-30T05:11:37;5.65;;;4.28;;
83963;SDS011;73994;50.868;5.420;2024-01-30T05:14:04;5.82;;;4.45;;
83963;SDS011;73994;50.868;5.420;2024-01-30T05:16:29;7.38;;;4.00;;
83963;SDS011;73994;50.868;5.420;2024-01-30T05:18:55;6.57;;;4.13;;
83963;SDS011;73994;50.868;5.420;2024-01-30T05:21:21;5.78;;;2.60;;
83963;SDS011;73994;50.868;5.420;2024-01-30T05:23:47;5.88;;;4.32;;
83963;SDS011;73994;50.868;5.420;2024-01-30T05:26:12;7.25;;;4.63;;
83963;SDS011;73994;50.868;5.420;2024-01-30T05:28:38;6.70;;;4.57;;
83963;SDS011;73994;50.868;5.420;2024-01-30T05:31:04;6.07;;;4.35;;
83963;SDS011;73994;50.868;5.420;2024-01-30T05:33:30;6.35;;;3.95;;
83963;SDS011;73994;50.868;5.420;2024-01-30T05:35:55;3.88;;;2.88;;
83963;SDS011;73994;50.868;5.420;2024-01-30T05:38:21;5.40;;;4.82;;
83963;SDS011;73994;50.868;5.420;2024-01-30T05:40:47;5.32;;;4.43;;
83963;SDS011;73994;50.868;5.420;2024-01-30T05:43:13;7.28;;;4.88;;
83963;SDS011;73994;50.868;5.420;2024-01-30T05:45:38;5.40;;;4.00;;
83963;SDS011;73994;50.868;5.420;2024-01-30T05:48:04;5.32;;;4.20;;
83963;SDS011;73994;50.868;5.420;2024-01-30T05:50:30;6.20;;;4.35;;
83963;SDS011;73994;50.868;5.420;2024-01-30T05:52:56;6.35;;;4.93;;
83963;SDS011;73994;50.868;5.420;2024-01-30T05:55:22;7.00;;;4.47;;
83963;SDS011;73994;50.868;5.420;2024-01-30T05:57:47;5.90;;;4.22;;
83963;SDS011;73994;50.868;5.420;2024-01-30T06:00:13;6.57;;;4.20;;
83963;SDS011;73994;50.868;5.420;2024-01-30T06:02:39;5.93;;;3.63;;
83963;SDS011;73994;50.868;5.420;2024-01-30T06:05:05;4.78;;;3.97;;
83963;SDS011;73994;50.868;5.420;2024-01-30T06:07:31;4.28;;;3.42;;
83963;SDS011;73994;50.868;5.420;2024-01-30T06:09:57;2.92;;;2.58;;
83963;SDS011;73994;50.868;5.420;2024-01-30T06:12:22;6.53;;;3.65;;
83963;SDS011;73994;50.868;5.420;2024-01-30T06:14:48;3.15;;;2.40;;
83963;SDS011;73994;50.868;5.420;2024-01-30T06:17:14;5.63;;;3.92;;
83963;SDS011;73994;50.868;5.420;2024-01-30T06:19:39;5.53;;;4.47;;
83963;SDS011;73994;50.868;5.420;2024-01-30T06:22:06;4.75;;;4.28;;
83963;SDS011;73994;50.868;5.420;2024-01-30T06:24:31;5.63;;;3.30;;
83963;SDS011;73994;50.868;5.420;2024-01-30T06:26:58;5.32;;;3.40;;
83963;SDS011;73994;50.868;5.420;2024-01-30T06:29:24;5.97;;;4.13;;
83963;SDS011;73994;50.868;5.420;2024-01-30T06:31:51;6.97;;;4.93;;
83963;SDS011;73994;50.868;5.420;2024-01-30T06:34:17;4.72;;;3.72;;
83963;SDS011;73994;50.868;5.420;2024-01-30T06:36:43;5.20;;;3.72;;
83963;SDS011;73994;50.868;5.420;2024-01-30T06:39:08;7.28;;;3.63;;
83963;SDS011;73994;50.868;5.420;2024-01-30T06:41:34;6.10;;;4.38;;
83963;SDS011;73994;50.868;5.420;2024-01-30T06:44:01;5.82;;;3.97;;
83963;SDS011;73994;50.868;5.420;2024-01-30T06:46:29;6.65;;;5.00;;
83963;SDS011;73994;50.868;5.420;2024-01-30T06:48:55;7.68;;;4.20;;
83963;SDS011;73994;50.868;5.420;2024-01-30T06:51:20;6.05;;;3.17;;
83963;SDS011;73994;50.868;5.420;2024-01-30T06:53:46;4.53;;;3.30;;
83963;SDS011;73994;50.868;5.420;2024-01-30T06:56:12;5.13;;;3.92;;
83963;SDS011;73994;50.868;5.420;2024-01-30T06:58:37;4.63;;;2.92;;
83963;SDS011;73994;50.868;5.420;2024-01-30T07:01:03;4.97;;;3.80;;
83963;SDS011;73994;50.868;5.420;2024-01-30T07:03:29;4.97;;;3.42;;
83963;SDS011;73994;50.868;5.420;2024-01-30T07:05:55;5.78;;;4.57;;
83963;SDS011;73994;50.868;5.420;2024-01-30T07:08:21;7.03;;;4.28;;
83963;SDS011;73994;50.868;5.420;2024-01-30T07:10:47;7.38;;;4.38;;
83963;SDS011;73994;50.868;5.420;2024-01-30T07:13:13;4.65;;;3.13;;
83963;SDS011;73994;50.868;5.420;2024-01-30T07:15:41;6.28;;;4.30;;
83963;SDS011;73994;50.868;5.420;2024-01-30T07:18:08;5.13;;;3.58;;
83963;SDS011;73994;50.868;5.420;2024-01-30T07:20:35;6.18;;;3.90;;
83963;SDS011;73994;50.868;5.420;2024-01-30T07:23:00;7.80;;;4.05;;
83963;SDS011;73994;50.868;5.420;2024-01-30T07:25:26;6.93;;;4.65;;
83963;SDS011;73994;50.868;5.420;2024-01-30T07:27:54;5.15;;;3.88;;
83963;SDS011;73994;50.868;5.420;2024-01-30T07:30:21;7.57;;;5.05;;
83963;SDS011;73994;50.868;5.420;2024-01-30T07:32:47;5.97;;;4.55;;
83963;SDS011;73994;50.868;5.420;2024-01-30T07:35:15;7.88;;;4.63;;
83963;SDS011;73994;50.868;5.420;2024-01-30T07:37:41;7.68;;;4.95;;
83963;SDS011;73994;50.868;5.420;2024-01-30T07:40:07;7.95;;;4.40;;
83963;SDS011;73994;50.868;5.420;2024-01-30T07:42:33;5.65;;;4.20;;
83963;SDS011;73994;50.868;5.420;2024-01-30T07:44:59;8.55;;;4.97;;
83963;SDS011;73994;50.868;5.420;2024-01-30T07:47:25;6.20;;;5.47;;
83963;SDS011;73994;50.868;5.420;2024-01-30T07:49:51;6.50;;;4.82;;
83963;SDS011;73994;50.868;5.420;2024-01-30T07:52:17;7.35;;;4.45;;
83963;SDS011;73994;50.868;5.420;2024-01-30T07:54:49;6.63;;;4.40;;
83963;SDS011;73994;50.868;5.420;2024-01-30T07:57:16;6.60;;;5.40;;
83963;SDS011;73994;50.868;5.420;2024-01-30T07:59:45;7.30;;;4.97;;
83963;SDS011;73994;50.868;5.420;2024-01-30T08:02:14;6.35;;;4.60;;
83963;SDS011;73994;50.868;5.420;2024-01-30T08:04:41;6.43;;;4.18;;
83963;SDS011;73994;50.868;5.420;2024-01-30T08:07:07;5.05;;;4.00;;
83963;SDS011;73994;50.868;5.420;2024-01-30T08:09:33;6.25;;;4.03;;
83963;SDS011;73994;50.868;5.420;2024-01-30T08:11:59;6.35;;;4.53;;
83963;SDS011;73994;50.868;5.420;2024-01-30T08:14:24;5.30;;;4.28;;
83963;SDS011;73994;50.868;5.420;2024-01-30T08:16:51;4.60;;;3.13;;
83963;SDS011;73994;50.868;5.420;2024-01-30T08:19:16;8.40;;;4.82;;
83963;SDS011;73994;50.868;5.420;2024-01-30T08:21:42;7.82;;;4.57;;
83963;SDS011;73994;50.868;5.420;2024-01-30T08:24:08;8.90;;;4.35;;
83963;SDS011;73994;50.868;5.420;2024-01-30T08:26:35;6.32;;;4.72;;
83963;SDS011;73994;50.868;5.420;2024-01-30T08:29:01;6.78;;;4.10;;
83963;SDS011;73994;50.868;5.420;2024-01-30T08:31:27;7.03;;;4.35;;
83963;SDS011;73994;50.868;5.420;2024-01-30T08:33:52;4.82;;;3.60;;
83963;SDS011;73994;50.868;5.420;2024-01-30T08:36:18;7.15;;;5.43;;
83963;SDS011;73994;50.868;5.420;2024-01-30T08:38:45;9.82;;;4.85;;
83963;SDS011;73994;50.868;5.420;2024-01-30T08:41:10;5.65;;;3.65;;
83963;SDS011;73994;50.868;5.420;2024-01-30T08:43:36;6.70;;;4.10;;
83963;SDS011;73994;50.868;5.420;2024-01-30T08:46:02;7.45;;;4.30;;
83963;SDS011;73994;50.868;5.420;2024-01-30T08:48:28;5.30;;;4.30;;
83963;SDS011;73994;50.868;5.420;2024-01-30T08:50:54;6.80;;;4.75;;
83963;SDS011;73994;50.868;5.420;2024-01-30T08:53:20;5.55;;;3.92;;
83963;SDS011;73994;50.868;5.420;2024-01-30T08:55:46;5.82;;;4.38;;
83963;SDS011;73994;50.868;5.420;2024-01-30T08:58:11;6.90;;;4.10;;
83963;SDS011;73994;50.868;5.420;2024-01-30T09:00:37;5.90;;;4.00;;
83963;SDS011;73994;50.868;5.420;2024-01-30T09:03:03;4.13;;;2.72;;
83963;SDS011;73994;50.868;5.420;2024-01-30T09:05:29;5.60;;;4.57;;
83963;SDS011;73994;50.868;5.420;2024-01-30T09:07:55;8.85;;;4.35;;
83963;SDS011;73994;50.868;5.420;2024-01-30T09:10:21;4.75;;;3.85;;
83963;SDS011;73994;50.868;5.420;2024-01-30T09:12:47;5.10;;;3.47;;
83963;SDS011;73994;50.868;5.420;2024-01-30T09:15:13;5.28;;;3.72;;
83963;SDS011;73994;50.868;5.420;2024-01-30T09:17:39;6.32;;;3.85;;
83963;SDS011;73994;50.868;5.420;2024-01-30T09:20:05;6.53;;;4.47;;
83963;SDS011;73994;50.868;5.420;2024-01-30T09:22:31;5.90;;;4.13;;
83963;SDS011;73994;50.868;5.420;2024-01-30T09:24:57;8.52;;;4.50;;
83963;SDS011;73994;50.868;5.420;2024-01-30T09:27:22;4.45;;;3.47;;
83963;SDS011;73994;50.868;5.420;2024-01-30T09:29:48;6.15;;;4.43;;
83963;SDS011;73994;50.868;5.420;2024-01-30T09:32:14;8.63;;;4.43;;
83963;SDS011;73994;50.868;5.420;2024-01-30T09:34:40;5.72;;;3.38;;
83963;SDS011;73994;50.868;5.420;2024-01-30T09:37:06;5.50;;;3.58;;
83963;SDS011;73994;50.868;5.420;2024-01-30T09:39:32;6.00;;;4.38;;
83963;SDS011;73994;50.868;5.420;2024-01-30T09:44:28;6.72;;;4.30;;
83963;SDS011;73994;50.868;5.420;2024-01-30T09:46:55;5.85;;;3.83;;
83963;SDS011;73994;50.868;5.420;2024-01-30T09:49:23;8.18;;;5.05;;
83963;SDS011;73994;50.868;5.420;2024-01-30T09:51:50;6.57;;;4.00;;
83963;SDS011;73994;50.868;5.420;2024-01-30T09:54:18;5.22;;;3.95;;
83963;SDS011;73994;50.868;5.420;2024-01-30T09:56:44;8.38;;;4.78;;
83963;SDS011;73994;50.868;5.420;2024-01-30T09:59:10;5.78;;;3.55;;
83963;SDS011;73994;50.868;5.420;2024-01-30T10:01:36;6.47;;;4.03;;
83963;SDS011;73994;50.868;5.420;2024-01-30T10:04:02;7.25;;;4.10;;
83963;SDS011;73994;50.868;5.420;2024-01-30T10:06:29;7.72;;;3.58;;
83963;SDS011;73994;50.868;5.420;2024-01-30T10:08:55;6.40;;;3.72;;
83963;SDS011;73994;50.868;5.420;2024-01-30T10:11:20;8.38;;;4.50;;
83963;SDS011;73994;50.868;5.420;2024-01-30T10:13:47;7.50;;;4.38;;
83963;SDS011;73994;50.868;5.420;2024-01-30T10:16:15;6.70;;;3.45;;
83963;SDS011;73994;50.868;5.420;2024-01-30T10:18:42;8.20;;;5.03;;
83963;SDS011;73994;50.868;5.420;2024-01-30T10:21:08;6.85;;;4.07;;
83963;SDS011;73994;50.868;5.420;2024-01-30T10:23:35;6.38;;;3.47;;
83963;SDS011;73994;50.868;5.420;2024-01-30T10:26:02;6.47;;;4.22;;
83963;SDS011;73994;50.868;5.420;2024-01-30T10:28:33;8.48;;;4.75;;
83963;SDS011;73994;50.868;5.420;2024-01-30T10:30:59;11.07;;;4.20;;
83963;SDS011;73994;50.868;5.420;2024-01-30T10:33:27;8.30;;;4.88;;
83963;SDS011;73994;50.868;5.420;2024-01-30T10:35:59;6.63;;;4.13;;
83963;SDS011;73994;50.868;5.420;2024-01-30T10:38:28;9.25;;;4.60;;
83963;SDS011;73994;50.868;5.420;2024-01-30T10:40:59;11.07;;;4.38;;
83963;SDS011;73994;50.868;5.420;2024-01-30T10:43:30;7.45;;;4.28;;
83963;SDS011;73994;50.868;5.420;2024-01-30T10:46:01;7.75;;;4.38;;
83963;SDS011;73994;50.868;5.420;2024-01-30T10:48:36;7.55;;;4.75;;
83963;SDS011;73994;50.868;5.420;2024-01-30T10:51:07;8.55;;;3.70;;
83963;SDS011;73994;50.868;5.420;2024-01-30T10:53:34;6.07;;;4.43;;
83963;SDS011;73994;50.868;5.420;2024-01-30T10:56:01;9.95;;;4.20;;
83963;SDS011;73994;50.868;5.420;2024-01-30T10:58:28;9.52;;;5.38;;
83963;SDS011;73994;50.868;5.420;2024-01-30T11:00:54;9.70;;;5.63;;
83963;SDS011;73994;50.868;5.420;2024-01-30T11:03:20;8.90;;;4.88;;
83963;SDS011;73994;50.868;5.420;2024-01-30T11:05:49;7.78;;;5.18;;
83963;SDS011;73994;50.868;5.420;2024-01-30T11:08:24;8.60;;;4.18;;
83963;SDS011;73994;50.868;5.420;2024-01-30T11:10:57;8.30;;;5.10;;
83963;SDS011;73994;50.868;5.420;2024-01-30T11:13:26;11.25;;;5.70;;
83963;SDS011;73994;50.868;5.420;2024-01-30T11:15:53;10.35;;;5.70;;
83963;SDS011;73994;50.868;5.420;2024-01-30T11:18:25;13.35;;;6.25;;
83963;SDS011;73994;50.868;5.420;2024-01-30T11:20:51;11.27;;;6.30;;
83963;SDS011;73994;50.868;5.420;2024-01-30T11:23:17;13.07;;;6.22;;
83963;SDS011;73994;50.868;5.420;2024-01-30T11:25:46;9.55;;;5.32;;
83963;SDS011;73994;50.868;5.420;2024-01-30T11:28:13;20.08;;;7.88;;
83963;SDS011;73994;50.868;5.420;2024-01-30T11:30:43;9.60;;;4.70;;
83963;SDS011;73994;50.868;5.420;2024-01-30T11:33:12;9.23;;;6.40;;
83963;SDS011;73994;50.868;5.420;2024-01-30T11:35:42;9.68;;;5.50;;
83963;SDS011;73994;50.868;5.420;2024-01-30T11:38:09;8.98;;;5.15;;
83963;SDS011;73994;50.868;5.420;2024-01-30T11:40:38;8.90;;;4.70;;
83963;SDS011;73994;50.868;5.420;2024-01-30T11:43:05;15.88;;;7.35;;
83963;SDS011;73994;50.868;5.420;2024-01-30T11:45:32;10.43;;;4.82;;
83963;SDS011;73994;50.868;5.420;2024-01-30T11:47:58;8.88;;;5.68;;
83963;SDS011;73994;50.868;5.420;2024-01-30T11:50:31;14.57;;;6.35;;
83963;SDS011;73994;50.868;5.420;2024-01-30T11:52:59;8.38;;;4.90;;
83963;SDS011;73994;50.868;5.420;2024-01-30T11:55:25;8.95;;;4.97;;
83963;SDS011;73994;50.868;5.420;2024-01-30T11:57:54;9.27;;;5.80;;
83963;SDS011;73994;50.868;5.420;2024-01-30T12:00:21;11.15;;;6.18;;
83963;SDS011;73994;50.868;5.420;2024-01-30T12:02:54;12.25;;;7.07;;
83963;SDS011;73994;50.868;5.420;2024-01-30T12:05:24;7.97;;;5.72;;
83963;SDS011;73994;50.868;5.420;2024-01-30T12:07:50;9.93;;;5.25;;
83963;SDS011;73994;50.868;5.420;2024-01-30T12:10:16;7.65;;;5.68;;
83963;SDS011;73994;50.868;5.420;2024-01-30T12:12:44;7.85;;;5.28;;
83963;SDS011;73994;50.868;5.420;2024-01-30T12:15:21;8.60;;;6.15;;
83963;SDS011;73994;50.868;5.420;2024-01-30T12:17:47;9.50;;;5.70;;
83963;SDS011;73994;50.868;5.420;2024-01-30T12:20:14;13.52;;;6.55;;
83963;SDS011;73994;50.868;5.420;2024-01-30T12:25:09;11.45;;;6.32;;
83963;SDS011;73994;50.868;5.420;2024-01-30T12:27:36;9.23;;;6.50;;
83963;SDS011;73994;50.868;5.420;2024-01-30T12:30:06;7.68;;;5.75;;
83963;SDS011;73994;50.868;5.420;2024-01-30T12:32:35;9.75;;;6.15;;
83963;SDS011;73994;50.868;5.420;2024-01-30T12:35:02;13.95;;;6.72;;
83963;SDS011;73994;50.868;5.420;2024-01-30T12:37:29;9.77;;;6.13;;
83963;SDS011;73994;50.868;5.420;2024-01-30T12:39:55;11.95;;;6.28;;
83963;SDS011;73994;50.868;5.420;2024-01-30T12:42:21;11.55;;;6.88;;
83963;SDS011;73994;50.868;5.420;2024-01-30T12:44:48;11.80;;;6.65;;
83963;SDS011;73994;50.868;5.420;2024-01-30T12:47:14;10.75;;;6.15;;
83963;SDS011;73994;50.868;5.420;2024-01-30T12:49:43;11.15;;;6.97;;
83963;SDS011;73994;50.868;5.420;2024-01-30T12:52:10;10.15;;;6.03;;
83963;SDS011;73994;50.868;5.420;2024-01-30T12:54:39;8.50;;;4.50;;
83963;SDS011;73994;50.868;5.420;2024-01-30T12:57:05;9.60;;;5.47;;
83963;SDS011;73994;50.868;5.420;2024-01-30T12:59:31;7.72;;;5.50;;
83963;SDS011;73994;50.868;5.420;2024-01-30T13:01:58;7.70;;;5.05;;
83963;SDS011;73994;50.868;5.420;2024-01-30T13:06:51;7.10;;;5.10;;
83963;SDS011;73994;50.868;5.420;2024-01-30T13:09:16;8.25;;;5.10;;
83963;SDS011;73994;50.868;5.420;2024-01-30T13:11:42;7.18;;;4.65;;
83963;SDS011;73994;50.868;5.420;2024-01-30T13:14:08;5.70;;;3.00;;
83963;SDS011;73994;50.868;5.420;2024-01-30T13:16:34;6.50;;;3.53;;
83963;SDS011;73994;50.868;5.420;2024-01-30T13:18:59;6.38;;;2.33;;
83963;SDS011;73994;50.868;5.420;2024-01-30T13:21:26;5.45;;;2.55;;
83963;SDS011;73994;50.868;5.420;2024-01-30T13:23:53;4.25;;;2.38;;
83963;SDS011;73994;50.868;5.420;2024-01-30T13:26:19;2.40;;;1.42;;
83963;SDS011;73994;50.868;5.420;2024-01-30T13:28:46;5.78;;;2.53;;
83963;SDS011;73994;50.868;5.420;2024-01-30T13:31:12;3.35;;;1.65;;
83963;SDS011;73994;50.868;5.420;2024-01-30T13:33:38;2.53;;;1.35;;
83963;SDS011;73994;50.868;5.420;2024-01-30T13:36:04;2.45;;;1.23;;
83963;SDS011;73994;50.868;5.420;2024-01-30T13:38:30;4.35;;;1.48;;
83963;SDS011;73994;50.868;5.420;2024-01-30T13:40:56;2.55;;;1.15;;
83963;SDS011;73994;50.868;5.420;2024-01-30T13:43:21;2.55;;;1.13;;
83963;SDS011;73994;50.868;5.420;2024-01-30T13:45:47;2.45;;;1.55;;
83963;SDS011;73994;50.868;5.420;2024-01-30T13:48:13;3.60;;;1.13;;
83963;SDS011;73994;50.868;5.420;2024-01-30T13:50:38;1.63;;;1.00;;
83963;SDS011;73994;50.868;5.420;2024-01-30T13:53:04;1.60;;;1.17;;
83963;SDS011;73994;50.868;5.420;2024-01-30T13:55:30;3.65;;;1.27;;
83963;SDS011;73994;50.868;5.420;2024-01-30T13:57:56;2.50;;;1.40;;
83963;SDS011;73994;50.868;5.420;2024-01-30T14:00:22;4.47;;;1.15;;
83963;SDS011;73994;50.868;5.420;2024-01-30T14:02:48;3.22;;;1.08;;
83963;SDS011;73994;50.868;5.420;2024-01-30T14:05:14;2.25;;;1.00;;
83963;SDS011;73994;50.868;5.420;2024-01-30T14:07:40;2.58;;;1.00;;
83963;SDS011;73994;50.868;5.420;2024-01-30T14:10:09;2.03;;;1.08;;
83963;SDS011;73994;50.868;5.420;2024-01-30T14:15:01;2.10;;;0.80;;
83963;SDS011;73994;50.868;5.420;2024-01-30T14:17:27;1.52;;;0.80;;
83963;SDS011;73994;50.868;5.420;2024-01-30T14:19:53;3.10;;;1.15;;
83963;SDS011;73994;50.868;5.420;2024-01-30T14:22:21;2.05;;;0.90;;
83963;SDS011;73994;50.868;5.420;2024-01-30T14:24:47;2.45;;;1.45;;
83963;SDS011;73994;50.868;5.420;2024-01-30T14:27:13;2.83;;;1.25;;
83963;SDS011;73994;50.868;5.420;2024-01-30T14:29:38;1.38;;;0.80;;
83963;SDS011;73994;50.868;5.420;2024-01-30T14:32:04;0.70;;;0.70;;
83963;SDS011;73994;50.868;5.420;2024-01-30T14:34:30;1.20;;;0.52;;
83963;SDS011;73994;50.868;5.420;2024-01-30T14:36:56;0.63;;;0.60;;
83963;SDS011;73994;50.868;5.420;2024-01-30T14:39:22;1.58;;;1.52;;
83963;SDS011;73994;50.868;5.420;2024-01-30T14:41:48;1.67;;;1.58;;
83963;SDS011;73994;50.868;5.420;2024-01-30T14:44:13;1.63;;;1.52;;
83963;SDS011;73994;50.868;5.420;2024-01-30T14:46:39;1.98;;;1.42;;
83963;SDS011;73994;50.868;5.420;2024-01-30T14:49:05;1.75;;;1.45;;
83963;SDS011;73994;50.868;5.420;2024-01-30T14:51:32;0.93;;;0.90;;
83963;SDS011;73994;50.868;5.420;2024-01-30T14:53:59;1.40;;;1.27;;